Rechercher aéroport 
image banner adimage banner adimage banner ad
image banner ad

CA32 - San Joaquin

Situé à San Joaquin, United States

ICAO - CA32, IATA -

Données fournies par Airmate  

Information générale

Coordonnées: N36°34'60" W120°15'4"
Élévation : 165 feet MSL.
Variation magnétique : 15° East
Voir autres Aéroports à California

Données opérationnelles

Special qualification required
Heure actuelle UTC:
Heure actuelle locale:
Météo à : KNLC - Lemoore Nas (Reeves Fld) ( 39 km )
METAR: KNLC 231356Z COR 24005KT 10SM FEW055 17/06 A2992 RMK AO2 SLP132 FU FEW055 RH/49 T01670061
TAF: TAF COR KNLC 2307/2407 33008KT 8000 HZ FU SCT020 QNH2991INS BECMG 2309/2310 34008KT 6000 HZ FU SCT020 QNH2991INS FM232100 32008KT 8000 HZ FU SCT020 QNH2990INS T17/2314Z T32/2321Z COR 0923 FS30189
Voir NOTAMs / SUP AIP / TFR affectant cet aéroport [VIEW]
Fréquences de communication: [VIEW]

Pistes:

Identifiant RWYQFULongueur (ft)Largeur (ft)SurfaceLDA (ft)
15250030OTHER
33250030OTHER

Coordonnées de l'aéroport

Adresse: San Joaquin United States

Vue satellite de CA32